sensor_id;sensor_type;location;lat;lon;timestamp;P1;durP1;ratioP1;P2;durP2;ratioP2
77016;SDS011;65949;53.132;17.930;2023-12-04T00:00:41;18.60;;;6.40;;
77016;SDS011;65949;53.132;17.930;2023-12-04T00:03:27;15.20;;;5.50;;
77016;SDS011;65949;53.132;17.930;2023-12-04T00:05:54;18.40;;;7.80;;
77016;SDS011;65949;53.132;17.930;2023-12-04T00:08:21;17.20;;;6.60;;
77016;SDS011;65949;53.132;17.930;2023-12-04T00:10:47;21.20;;;8.10;;
77016;SDS011;65949;53.132;17.930;2023-12-04T00:13:14;16.30;;;6.10;;
77016;SDS011;65949;53.132;17.930;2023-12-04T00:15:40;19.20;;;7.80;;
77016;SDS011;65949;53.132;17.930;2023-12-04T00:18:07;16.40;;;5.40;;
77016;SDS011;65949;53.132;17.930;2023-12-04T00:20:34;22.30;;;9.30;;
77016;SDS011;65949;53.132;17.930;2023-12-04T00:23:00;17.90;;;7.40;;
77016;SDS011;65949;53.132;17.930;2023-12-04T00:25:27;19.30;;;7.30;;
77016;SDS011;65949;53.132;17.930;2023-12-04T00:27:53;18.20;;;6.80;;
77016;SDS011;65949;53.132;17.930;2023-12-04T00:30:20;21.10;;;8.40;;
77016;SDS011;65949;53.132;17.930;2023-12-04T00:32:47;21.00;;;7.30;;
77016;SDS011;65949;53.132;17.930;2023-12-04T00:35:13;20.40;;;7.80;;
77016;SDS011;65949;53.132;17.930;2023-12-04T00:37:40;17.00;;;6.60;;
77016;SDS011;65949;53.132;17.930;2023-12-04T00:40:07;20.00;;;7.00;;
77016;SDS011;65949;53.132;17.930;2023-12-04T00:42:34;20.60;;;8.10;;
77016;SDS011;65949;53.132;17.930;2023-12-04T00:45:01;18.00;;;6.10;;
77016;SDS011;65949;53.132;17.930;2023-12-04T00:47:29;18.90;;;7.20;;
77016;SDS011;65949;53.132;17.930;2023-12-04T00:49:56;19.60;;;7.20;;
77016;SDS011;65949;53.132;17.930;2023-12-04T00:52:22;18.20;;;7.10;;
77016;SDS011;65949;53.132;17.930;2023-12-04T00:54:49;19.90;;;7.30;;
77016;SDS011;65949;53.132;17.930;2023-12-04T00:57:16;21.00;;;8.50;;
77016;SDS011;65949;53.132;17.930;2023-12-04T00:59:42;17.00;;;6.20;;
77016;SDS011;65949;53.132;17.930;2023-12-04T01:02:09;21.50;;;8.10;;
77016;SDS011;65949;53.132;17.930;2023-12-04T01:04:36;19.60;;;7.40;;
77016;SDS011;65949;53.132;17.930;2023-12-04T01:07:06;17.30;;;6.50;;
77016;SDS011;65949;53.132;17.930;2023-12-04T01:09:34;19.30;;;7.60;;
77016;SDS011;65949;53.132;17.930;2023-12-04T01:12:01;21.40;;;7.90;;
77016;SDS011;65949;53.132;17.930;2023-12-04T01:14:29;19.40;;;7.20;;
77016;SDS011;65949;53.132;17.930;2023-12-04T01:16:56;10.40;;;3.50;;
77016;SDS011;65949;53.132;17.930;2023-12-04T01:19:22;17.90;;;6.20;;
77016;SDS011;65949;53.132;17.930;2023-12-04T01:21:49;19.10;;;7.40;;
77016;SDS011;65949;53.132;17.930;2023-12-04T01:24:16;17.00;;;6.60;;
77016;SDS011;65949;53.132;17.930;2023-12-04T01:26:42;18.10;;;6.80;;
77016;SDS011;65949;53.132;17.930;2023-12-04T01:29:09;19.50;;;7.30;;
77016;SDS011;65949;53.132;17.930;2023-12-04T01:31:35;19.40;;;7.70;;
77016;SDS011;65949;53.132;17.930;2023-12-04T01:34:02;18.20;;;6.60;;
77016;SDS011;65949;53.132;17.930;2023-12-04T01:36:28;19.10;;;6.50;;
77016;SDS011;65949;53.132;17.930;2023-12-04T01:38:55;17.20;;;6.70;;
77016;SDS011;65949;53.132;17.930;2023-12-04T01:41:22;18.80;;;6.90;;
77016;SDS011;65949;53.132;17.930;2023-12-04T01:43:48;22.50;;;8.20;;
77016;SDS011;65949;53.132;17.930;2023-12-04T01:46:15;18.40;;;7.20;;
77016;SDS011;65949;53.132;17.930;2023-12-04T01:48:44;19.30;;;6.90;;
77016;SDS011;65949;53.132;17.930;2023-12-04T01:51:13;17.30;;;6.80;;
77016;SDS011;65949;53.132;17.930;2023-12-04T01:53:41;17.00;;;6.20;;
77016;SDS011;65949;53.132;17.930;2023-12-04T01:56:09;17.90;;;6.90;;
77016;SDS011;65949;53.132;17.930;2023-12-04T01:58:36;14.20;;;4.70;;
77016;SDS011;65949;53.132;17.930;2023-12-04T02:01:04;20.50;;;7.30;;
77016;SDS011;65949;53.132;17.930;2023-12-04T02:03:31;18.30;;;7.60;;
77016;SDS011;65949;53.132;17.930;2023-12-04T02:05:59;17.70;;;6.20;;
77016;SDS011;65949;53.132;17.930;2023-12-04T02:08:29;18.10;;;6.60;;
77016;SDS011;65949;53.132;17.930;2023-12-04T02:10:56;17.80;;;6.10;;
77016;SDS011;65949;53.132;17.930;2023-12-04T02:13:23;18.50;;;7.00;;
77016;SDS011;65949;53.132;17.930;2023-12-04T02:15:51;17.40;;;6.30;;
77016;SDS011;65949;53.132;17.930;2023-12-04T02:18:21;15.60;;;5.60;;
77016;SDS011;65949;53.132;17.930;2023-12-04T02:20:48;18.50;;;6.80;;
77016;SDS011;65949;53.132;17.930;2023-12-04T02:23:15;19.40;;;7.10;;
77016;SDS011;65949;53.132;17.930;2023-12-04T02:25:42;17.80;;;7.30;;
77016;SDS011;65949;53.132;17.930;2023-12-04T02:28:09;17.60;;;7.20;;
77016;SDS011;65949;53.132;17.930;2023-12-04T02:30:40;17.70;;;6.50;;
77016;SDS011;65949;53.132;17.930;2023-12-04T02:33:09;18.40;;;6.70;;
77016;SDS011;65949;53.132;17.930;2023-12-04T02:35:38;17.70;;;7.30;;
77016;SDS011;65949;53.132;17.930;2023-12-04T02:38:06;18.30;;;6.80;;
77016;SDS011;65949;53.132;17.930;2023-12-04T02:40:34;16.40;;;6.60;;
77016;SDS011;65949;53.132;17.930;2023-12-04T02:43:01;13.10;;;4.60;;
77016;SDS011;65949;53.132;17.930;2023-12-04T02:45:27;19.40;;;7.30;;
77016;SDS011;65949;53.132;17.930;2023-12-04T02:47:54;18.60;;;7.40;;
77016;SDS011;65949;53.132;17.930;2023-12-04T02:50:21;19.60;;;7.90;;
77016;SDS011;65949;53.132;17.930;2023-12-04T02:52:47;15.90;;;6.50;;
77016;SDS011;65949;53.132;17.930;2023-12-04T02:55:14;19.30;;;7.60;;
77016;SDS011;65949;53.132;17.930;2023-12-04T02:57:40;16.60;;;6.90;;
77016;SDS011;65949;53.132;17.930;2023-12-04T03:00:07;20.70;;;7.50;;
77016;SDS011;65949;53.132;17.930;2023-12-04T03:02:35;15.60;;;5.50;;
77016;SDS011;65949;53.132;17.930;2023-12-04T03:05:02;17.30;;;7.10;;
77016;SDS011;65949;53.132;17.930;2023-12-04T03:07:29;20.00;;;7.50;;
77016;SDS011;65949;53.132;17.930;2023-12-04T03:09:56;18.20;;;7.40;;
77016;SDS011;65949;53.132;17.930;2023-12-04T03:12:22;19.30;;;7.30;;
77016;SDS011;65949;53.132;17.930;2023-12-04T03:14:49;16.70;;;7.00;;
77016;SDS011;65949;53.132;17.930;2023-12-04T03:17:16;18.70;;;7.10;;
77016;SDS011;65949;53.132;17.930;2023-12-04T03:19:42;18.90;;;6.70;;
77016;SDS011;65949;53.132;17.930;2023-12-04T03:22:09;22.10;;;7.50;;
77016;SDS011;65949;53.132;17.930;2023-12-04T03:24:35;17.00;;;6.60;;
77016;SDS011;65949;53.132;17.930;2023-12-04T03:27:02;15.20;;;5.70;;
77016;SDS011;65949;53.132;17.930;2023-12-04T03:29:29;18.20;;;7.20;;
77016;SDS011;65949;53.132;17.930;2023-12-04T03:31:55;17.30;;;6.10;;
77016;SDS011;65949;53.132;17.930;2023-12-04T03:34:22;20.00;;;7.10;;
77016;SDS011;65949;53.132;17.930;2023-12-04T03:36:48;19.10;;;7.20;;
77016;SDS011;65949;53.132;17.930;2023-12-04T03:39:15;16.20;;;6.10;;
77016;SDS011;65949;53.132;17.930;2023-12-04T03:41:42;16.60;;;6.30;;
77016;SDS011;65949;53.132;17.930;2023-12-04T03:44:08;17.20;;;6.60;;
77016;SDS011;65949;53.132;17.930;2023-12-04T03:46:35;17.10;;;6.10;;
77016;SDS011;65949;53.132;17.930;2023-12-04T03:49:01;18.80;;;6.90;;
77016;SDS011;65949;53.132;17.930;2023-12-04T03:51:30;16.20;;;6.50;;
77016;SDS011;65949;53.132;17.930;2023-12-04T03:53:56;17.90;;;6.00;;
77016;SDS011;65949;53.132;17.930;2023-12-04T03:56:23;19.50;;;7.10;;
77016;SDS011;65949;53.132;17.930;2023-12-04T03:58:49;15.80;;;5.50;;
77016;SDS011;65949;53.132;17.930;2023-12-04T04:01:16;19.00;;;7.40;;
77016;SDS011;65949;53.132;17.930;2023-12-04T04:03:42;15.50;;;5.70;;
77016;SDS011;65949;53.132;17.930;2023-12-04T04:06:09;17.40;;;7.40;;
77016;SDS011;65949;53.132;17.930;2023-12-04T04:08:36;18.30;;;7.30;;
77016;SDS011;65949;53.132;17.930;2023-12-04T04:11:03;15.50;;;5.90;;
77016;SDS011;65949;53.132;17.930;2023-12-04T04:13:30;16.30;;;6.30;;
77016;SDS011;65949;53.132;17.930;2023-12-04T04:15:57;20.30;;;7.90;;
77016;SDS011;65949;53.132;17.930;2023-12-04T04:18:23;18.30;;;7.00;;
77016;SDS011;65949;53.132;17.930;2023-12-04T04:20:50;18.50;;;7.50;;
77016;SDS011;65949;53.132;17.930;2023-12-04T04:23:16;17.90;;;6.80;;
77016;SDS011;65949;53.132;17.930;2023-12-04T04:25:43;16.10;;;6.30;;
77016;SDS011;65949;53.132;17.930;2023-12-04T04:28:10;18.60;;;7.20;;
77016;SDS011;65949;53.132;17.930;2023-12-04T04:30:36;16.10;;;6.30;;
77016;SDS011;65949;53.132;17.930;2023-12-04T04:33:03;18.30;;;7.90;;
77016;SDS011;65949;53.132;17.930;2023-12-04T04:35:31;18.00;;;6.90;;
77016;SDS011;65949;53.132;17.930;2023-12-04T04:37:57;18.80;;;7.10;;
77016;SDS011;65949;53.132;17.930;2023-12-04T04:40:24;17.80;;;6.10;;
77016;SDS011;65949;53.132;17.930;2023-12-04T04:42:51;16.50;;;6.30;;
77016;SDS011;65949;53.132;17.930;2023-12-04T04:45:17;18.10;;;7.40;;
77016;SDS011;65949;53.132;17.930;2023-12-04T04:47:44;18.60;;;7.00;;
77016;SDS011;65949;53.132;17.930;2023-12-04T04:50:10;20.90;;;7.20;;
77016;SDS011;65949;53.132;17.930;2023-12-04T04:52:37;20.60;;;7.20;;
77016;SDS011;65949;53.132;17.930;2023-12-04T04:55:04;19.30;;;6.90;;
77016;SDS011;65949;53.132;17.930;2023-12-04T04:57:31;22.70;;;9.10;;
77016;SDS011;65949;53.132;17.930;2023-12-04T04:59:58;23.40;;;8.10;;
77016;SDS011;65949;53.132;17.930;2023-12-04T05:02:25;18.20;;;7.00;;
77016;SDS011;65949;53.132;17.930;2023-12-04T05:04:51;20.10;;;7.40;;
77016;SDS011;65949;53.132;17.930;2023-12-04T05:07:18;20.40;;;7.40;;
77016;SDS011;65949;53.132;17.930;2023-12-04T05:09:44;20.70;;;7.80;;
77016;SDS011;65949;53.132;17.930;2023-12-04T05:12:11;19.20;;;7.00;;
77016;SDS011;65949;53.132;17.930;2023-12-04T05:14:38;18.50;;;7.20;;
77016;SDS011;65949;53.132;17.930;2023-12-04T05:17:04;18.80;;;6.80;;
77016;SDS011;65949;53.132;17.930;2023-12-04T05:19:31;22.40;;;7.70;;
77016;SDS011;65949;53.132;17.930;2023-12-04T05:21:57;21.40;;;8.00;;
77016;SDS011;65949;53.132;17.930;2023-12-04T05:24:24;21.00;;;7.50;;
77016;SDS011;65949;53.132;17.930;2023-12-04T05:26:50;19.40;;;7.20;;
77016;SDS011;65949;53.132;17.930;2023-12-04T05:29:17;22.10;;;8.50;;
77016;SDS011;65949;53.132;17.930;2023-12-04T05:31:44;22.80;;;8.30;;
77016;SDS011;65949;53.132;17.930;2023-12-04T05:34:10;21.30;;;7.90;;
77016;SDS011;65949;53.132;17.930;2023-12-04T05:36:37;16.90;;;5.80;;
77016;SDS011;65949;53.132;17.930;2023-12-04T05:39:04;22.00;;;7.90;;
77016;SDS011;65949;53.132;17.930;2023-12-04T05:41:30;22.30;;;8.70;;
77016;SDS011;65949;53.132;17.930;2023-12-04T05:43:57;23.00;;;8.10;;
77016;SDS011;65949;53.132;17.930;2023-12-04T05:46:24;19.60;;;7.80;;
77016;SDS011;65949;53.132;17.930;2023-12-04T05:48:50;20.70;;;7.10;;
77016;SDS011;65949;53.132;17.930;2023-12-04T05:51:17;20.60;;;7.90;;
77016;SDS011;65949;53.132;17.930;2023-12-04T05:53:43;22.20;;;8.30;;
77016;SDS011;65949;53.132;17.930;2023-12-04T05:56:10;22.80;;;8.40;;
77016;SDS011;65949;53.132;17.930;2023-12-04T05:58:37;23.60;;;8.60;;
77016;SDS011;65949;53.132;17.930;2023-12-04T06:01:03;21.90;;;8.30;;
77016;SDS011;65949;53.132;17.930;2023-12-04T06:03:32;24.00;;;8.90;;
77016;SDS011;65949;53.132;17.930;2023-12-04T06:05:59;22.90;;;8.30;;
77016;SDS011;65949;53.132;17.930;2023-12-04T06:08:25;21.50;;;8.60;;
77016;SDS011;65949;53.132;17.930;2023-12-04T06:10:52;21.40;;;8.30;;
77016;SDS011;65949;53.132;17.930;2023-12-04T06:13:19;26.00;;;9.70;;
77016;SDS011;65949;53.132;17.930;2023-12-04T06:15:45;24.40;;;9.40;;
77016;SDS011;65949;53.132;17.930;2023-12-04T06:18:12;21.90;;;8.20;;
77016;SDS011;65949;53.132;17.930;2023-12-04T06:20:39;25.90;;;9.70;;
77016;SDS011;65949;53.132;17.930;2023-12-04T06:23:05;23.20;;;8.60;;
77016;SDS011;65949;53.132;17.930;2023-12-04T06:25:32;24.80;;;9.30;;
77016;SDS011;65949;53.132;17.930;2023-12-04T06:28:00;27.30;;;10.50;;
77016;SDS011;65949;53.132;17.930;2023-12-04T06:30:27;22.30;;;9.10;;
77016;SDS011;65949;53.132;17.930;2023-12-04T06:32:54;23.50;;;9.90;;
77016;SDS011;65949;53.132;17.930;2023-12-04T06:35:21;24.20;;;9.40;;
77016;SDS011;65949;53.132;17.930;2023-12-04T06:37:49;29.70;;;10.80;;
77016;SDS011;65949;53.132;17.930;2023-12-04T06:40:19;25.10;;;8.60;;
77016;SDS011;65949;53.132;17.930;2023-12-04T06:42:47;28.40;;;9.70;;
77016;SDS011;65949;53.132;17.930;2023-12-04T06:45:14;28.60;;;10.60;;
77016;SDS011;65949;53.132;17.930;2023-12-04T06:47:41;30.60;;;10.80;;
77016;SDS011;65949;53.132;17.930;2023-12-04T06:50:10;27.10;;;9.40;;
77016;SDS011;65949;53.132;17.930;2023-12-04T06:52:36;98.80;;;34.50;;
77016;SDS011;65949;53.132;17.930;2023-12-04T06:55:03;38.30;;;12.10;;
77016;SDS011;65949;53.132;17.930;2023-12-04T06:57:30;28.80;;;10.50;;
77016;SDS011;65949;53.132;17.930;2023-12-04T06:59:57;28.10;;;10.20;;
77016;SDS011;65949;53.132;17.930;2023-12-04T07:02:23;31.50;;;10.80;;
77016;SDS011;65949;53.132;17.930;2023-12-04T07:04:50;27.30;;;10.10;;
77016;SDS011;65949;53.132;17.930;2023-12-04T07:07:16;34.10;;;10.50;;
77016;SDS011;65949;53.132;17.930;2023-12-04T07:09:43;33.70;;;9.40;;
77016;SDS011;65949;53.132;17.930;2023-12-04T07:12:09;30.60;;;11.40;;
77016;SDS011;65949;53.132;17.930;2023-12-04T07:14:36;30.10;;;10.30;;
77016;SDS011;65949;53.132;17.930;2023-12-04T07:17:03;31.40;;;11.10;;
77016;SDS011;65949;53.132;17.930;2023-12-04T07:19:30;30.80;;;10.20;;
77016;SDS011;65949;53.132;17.930;2023-12-04T07:21:57;28.30;;;8.90;;
77016;SDS011;65949;53.132;17.930;2023-12-04T07:24:23;32.60;;;10.80;;
77016;SDS011;65949;53.132;17.930;2023-12-04T07:26:50;36.00;;;12.20;;
77016;SDS011;65949;53.132;17.930;2023-12-04T07:29:16;34.80;;;11.40;;
77016;SDS011;65949;53.132;17.930;2023-12-04T07:31:43;35.80;;;11.30;;
77016;SDS011;65949;53.132;17.930;2023-12-04T07:34:09;24.20;;;9.10;;
77016;SDS011;65949;53.132;17.930;2023-12-04T07:36:36;26.00;;;9.30;;
77016;SDS011;65949;53.132;17.930;2023-12-04T07:39:03;31.90;;;11.20;;
77016;SDS011;65949;53.132;17.930;2023-12-04T07:41:32;30.40;;;10.50;;
77016;SDS011;65949;53.132;17.930;2023-12-04T07:43:59;28.20;;;10.50;;
77016;SDS011;65949;53.132;17.930;2023-12-04T07:46:26;30.20;;;9.80;;
77016;SDS011;65949;53.132;17.930;2023-12-04T07:48:53;30.70;;;10.90;;
77016;SDS011;65949;53.132;17.930;2023-12-04T07:51:19;32.10;;;10.50;;
77016;SDS011;65949;53.132;17.930;2023-12-04T07:53:46;32.60;;;11.40;;
77016;SDS011;65949;53.132;17.930;2023-12-04T07:56:13;34.90;;;14.60;;
77016;SDS011;65949;53.132;17.930;2023-12-04T07:58:40;31.40;;;15.60;;
77016;SDS011;65949;53.132;17.930;2023-12-04T08:01:07;26.80;;;11.20;;
77016;SDS011;65949;53.132;17.930;2023-12-04T08:03:34;33.30;;;12.90;;
77016;SDS011;65949;53.132;17.930;2023-12-04T08:06:02;32.30;;;12.40;;
77016;SDS011;65949;53.132;17.930;2023-12-04T08:08:29;35.50;;;12.60;;
77016;SDS011;65949;53.132;17.930;2023-12-04T08:10:57;32.30;;;12.10;;
77016;SDS011;65949;53.132;17.930;2023-12-04T08:13:24;29.10;;;11.10;;
77016;SDS011;65949;53.132;17.930;2023-12-04T08:15:51;30.00;;;11.10;;
77016;SDS011;65949;53.132;17.930;2023-12-04T08:18:17;32.20;;;12.00;;
77016;SDS011;65949;53.132;17.930;2023-12-04T08:20:44;30.80;;;11.60;;
77016;SDS011;65949;53.132;17.930;2023-12-04T08:23:10;32.30;;;12.30;;
77016;SDS011;65949;53.132;17.930;2023-12-04T08:25:37;32.50;;;11.40;;
77016;SDS011;65949;53.132;17.930;2023-12-04T08:28:04;29.10;;;11.20;;
77016;SDS011;65949;53.132;17.930;2023-12-04T08:30:32;32.30;;;12.10;;
77016;SDS011;65949;53.132;17.930;2023-12-04T08:32:58;33.20;;;11.10;;
77016;SDS011;65949;53.132;17.930;2023-12-04T08:35:25;30.40;;;11.70;;
77016;SDS011;65949;53.132;17.930;2023-12-04T08:37:52;30.10;;;11.40;;
77016;SDS011;65949;53.132;17.930;2023-12-04T08:40:18;35.40;;;12.50;;
77016;SDS011;65949;53.132;17.930;2023-12-04T08:42:45;36.80;;;14.30;;
77016;SDS011;65949;53.132;17.930;2023-12-04T08:45:11;39.90;;;15.10;;
77016;SDS011;65949;53.132;17.930;2023-12-04T08:47:38;26.10;;;9.90;;
77016;SDS011;65949;53.132;17.930;2023-12-04T08:50:06;26.30;;;10.10;;
77016;SDS011;65949;53.132;17.930;2023-12-04T08:52:33;30.10;;;11.00;;
77016;SDS011;65949;53.132;17.930;2023-12-04T08:55:00;28.40;;;11.00;;
77016;SDS011;65949;53.132;17.930;2023-12-04T08:57:27;31.30;;;11.00;;
77016;SDS011;65949;53.132;17.930;2023-12-04T08:59:54;29.30;;;10.30;;
77016;SDS011;65949;53.132;17.930;2023-12-04T09:02:20;29.70;;;11.00;;
77016;SDS011;65949;53.132;17.930;2023-12-04T09:04:47;32.80;;;12.50;;
77016;SDS011;65949;53.132;17.930;2023-12-04T09:07:14;30.30;;;10.70;;
77016;SDS011;65949;53.132;17.930;2023-12-04T09:09:41;35.10;;;11.50;;
77016;SDS011;65949;53.132;17.930;2023-12-04T09:12:07;30.90;;;11.10;;
77016;SDS011;65949;53.132;17.930;2023-12-04T09:14:35;32.10;;;12.50;;
77016;SDS011;65949;53.132;17.930;2023-12-04T09:17:02;33.20;;;12.30;;
77016;SDS011;65949;53.132;17.930;2023-12-04T09:19:30;31.60;;;11.90;;
77016;SDS011;65949;53.132;17.930;2023-12-04T09:21:56;30.40;;;11.40;;
77016;SDS011;65949;53.132;17.930;2023-12-04T09:24:24;30.00;;;10.80;;
77016;SDS011;65949;53.132;17.930;2023-12-04T09:26:50;32.90;;;12.40;;
77016;SDS011;65949;53.132;17.930;2023-12-04T09:29:17;30.60;;;13.40;;
77016;SDS011;65949;53.132;17.930;2023-12-04T09:31:44;33.80;;;13.10;;
77016;SDS011;65949;53.132;17.930;2023-12-04T09:34:10;34.20;;;12.70;;
77016;SDS011;65949;53.132;17.930;2023-12-04T09:36:37;33.10;;;13.10;;
77016;SDS011;65949;53.132;17.930;2023-12-04T09:39:03;32.70;;;12.90;;
77016;SDS011;65949;53.132;17.930;2023-12-04T09:41:30;36.10;;;13.70;;
77016;SDS011;65949;53.132;17.930;2023-12-04T09:43:57;42.40;;;15.50;;
77016;SDS011;65949;53.132;17.930;2023-12-04T09:46:24;43.90;;;17.60;;
77016;SDS011;65949;53.132;17.930;2023-12-04T09:48:51;31.90;;;11.90;;
77016;SDS011;65949;53.132;17.930;2023-12-04T09:51:18;32.00;;;12.50;;
77016;SDS011;65949;53.132;17.930;2023-12-04T09:53:47;34.30;;;13.00;;
77016;SDS011;65949;53.132;17.930;2023-12-04T09:56:15;30.50;;;11.40;;
77016;SDS011;65949;53.132;17.930;2023-12-04T09:58:44;36.70;;;14.30;;
77016;SDS011;65949;53.132;17.930;2023-12-04T10:01:11;54.20;;;20.80;;
77016;SDS011;65949;53.132;17.930;2023-12-04T10:03:39;36.60;;;15.40;;
77016;SDS011;65949;53.132;17.930;2023-12-04T10:06:06;40.20;;;16.60;;
77016;SDS011;65949;53.132;17.930;2023-12-04T10:08:34;37.30;;;16.50;;
77016;SDS011;65949;53.132;17.930;2023-12-04T10:11:01;38.00;;;14.70;;
77016;SDS011;65949;53.132;17.930;2023-12-04T10:13:28;36.20;;;14.90;;
77016;SDS011;65949;53.132;17.930;2023-12-04T10:15:55;33.30;;;13.10;;
77016;SDS011;65949;53.132;17.930;2023-12-04T10:18:25;32.70;;;13.30;;
77016;SDS011;65949;53.132;17.930;2023-12-04T10:20:53;34.80;;;13.50;;
77016;SDS011;65949;53.132;17.930;2023-12-04T10:23:36;32.80;;;12.80;;
77016;SDS011;65949;53.132;17.930;2023-12-04T10:26:05;33.20;;;12.20;;
77016;SDS011;65949;53.132;17.930;2023-12-04T10:28:37;33.80;;;12.90;;
77016;SDS011;65949;53.132;17.930;2023-12-04T10:31:03;34.50;;;13.20;;
77016;SDS011;65949;53.132;17.930;2023-12-04T10:33:33;33.70;;;13.90;;
77016;SDS011;65949;53.132;17.930;2023-12-04T10:35:59;35.00;;;14.10;;
77016;SDS011;65949;53.132;17.930;2023-12-04T10:38:26;37.30;;;14.40;;
77016;SDS011;65949;53.132;17.930;2023-12-04T10:40:53;34.70;;;13.90;;
77016;SDS011;65949;53.132;17.930;2023-12-04T10:43:23;34.30;;;12.80;;
77016;SDS011;65949;53.132;17.930;2023-12-04T10:45:51;23.80;;;8.00;;
77016;SDS011;65949;53.132;17.930;2023-12-04T10:48:18;37.70;;;13.90;;
77016;SDS011;65949;53.132;17.930;2023-12-04T10:50:46;97.90;;;41.90;;
77016;SDS011;65949;53.132;17.930;2023-12-04T10:53:14;36.40;;;15.70;;
77016;SDS011;65949;53.132;17.930;2023-12-04T10:55:43;37.40;;;14.00;;
77016;SDS011;65949;53.132;17.930;2023-12-04T10:58:11;35.20;;;14.50;;
77016;SDS011;65949;53.132;17.930;2023-12-04T11:00:43;38.30;;;14.70;;
77016;SDS011;65949;53.132;17.930;2023-12-04T11:03:24;33.40;;;14.20;;
77016;SDS011;65949;53.132;17.930;2023-12-04T11:06:02;39.90;;;17.20;;
77016;SDS011;65949;53.132;17.930;2023-12-04T11:08:35;27.40;;;10.30;;
77016;SDS011;65949;53.132;17.930;2023-12-04T11:11:03;33.80;;;12.80;;
77016;SDS011;65949;53.132;17.930;2023-12-04T11:13:37;38.40;;;14.00;;
77016;SDS011;65949;53.132;17.930;2023-12-04T11:19:06;39.50;;;15.70;;
77016;SDS011;65949;53.132;17.930;2023-12-04T11:21:45;34.50;;;13.70;;
77016;SDS011;65949;53.132;17.930;2023-12-04T11:24:12;32.10;;;13.20;;
77016;SDS011;65949;53.132;17.930;2023-12-04T11:26:40;34.20;;;13.30;;
77016;SDS011;65949;53.132;17.930;2023-12-04T11:29:08;38.20;;;13.60;;
77016;SDS011;65949;53.132;17.930;2023-12-04T11:31:36;38.20;;;15.10;;
77016;SDS011;65949;53.132;17.930;2023-12-04T11:34:04;36.90;;;14.60;;
77016;SDS011;65949;53.132;17.930;2023-12-04T11:36:31;35.60;;;14.90;;
77016;SDS011;65949;53.132;17.930;2023-12-04T11:38:59;39.10;;;16.80;;
77016;SDS011;65949;53.132;17.930;2023-12-04T11:41:26;40.60;;;17.20;;
77016;SDS011;65949;53.132;17.930;2023-12-04T11:43:56;40.90;;;15.30;;
77016;SDS011;65949;53.132;17.930;2023-12-04T11:46:28;39.60;;;15.50;;
77016;SDS011;65949;53.132;17.930;2023-12-04T11:49:04;42.40;;;16.60;;
77016;SDS011;65949;53.132;17.930;2023-12-04T11:51:57;39.10;;;15.60;;
77016;SDS011;65949;53.132;17.930;2023-12-04T11:54:25;41.00;;;15.90;;
77016;SDS011;65949;53.132;17.930;2023-12-04T11:57:02;37.00;;;15.40;;
77016;SDS011;65949;53.132;17.930;2023-12-04T11:59:50;33.40;;;13.50;;
77016;SDS011;65949;53.132;17.930;2023-12-04T12:02:18;38.50;;;14.50;;
77016;SDS011;65949;53.132;17.930;2023-12-04T12:04:45;41.30;;;16.10;;
77016;SDS011;65949;53.132;17.930;2023-12-04T12:07:12;39.20;;;15.60;;
77016;SDS011;65949;53.132;17.930;2023-12-04T12:09:38;33.80;;;14.80;;
77016;SDS011;65949;53.132;17.930;2023-12-04T12:12:05;40.60;;;15.30;;
77016;SDS011;65949;53.132;17.930;2023-12-04T12:14:32;36.50;;;14.50;;
77016;SDS011;65949;53.132;17.930;2023-12-04T12:16:59;35.90;;;14.60;;
77016;SDS011;65949;53.132;17.930;2023-12-04T12:19:27;40.60;;;14.90;;
77016;SDS011;65949;53.132;17.930;2023-12-04T12:21:54;39.80;;;16.40;;
77016;SDS011;65949;53.132;17.930;2023-12-04T12:24:20;42.90;;;17.80;;
77016;SDS011;65949;53.132;17.930;2023-12-04T12:26:47;40.70;;;16.10;;
77016;SDS011;65949;53.132;17.930;2023-12-04T12:29:14;44.30;;;17.00;;
77016;SDS011;65949;53.132;17.930;2023-12-04T12:31:40;39.10;;;16.50;;
77016;SDS011;65949;53.132;17.930;2023-12-04T12:34:07;36.60;;;14.20;;
77016;SDS011;65949;53.132;17.930;2023-12-04T12:36:34;40.80;;;16.10;;
77016;SDS011;65949;53.132;17.930;2023-12-04T12:39:01;36.70;;;14.70;;
77016;SDS011;65949;53.132;17.930;2023-12-04T12:41:30;44.30;;;17.50;;
77016;SDS011;65949;53.132;17.930;2023-12-04T12:43:57;41.70;;;14.90;;
77016;SDS011;65949;53.132;17.930;2023-12-04T12:46:24;44.70;;;17.30;;
77016;SDS011;65949;53.132;17.930;2023-12-04T12:48:51;42.20;;;16.30;;
77016;SDS011;65949;53.132;17.930;2023-12-04T12:51:17;38.30;;;14.90;;
77016;SDS011;65949;53.132;17.930;2023-12-04T12:53:44;39.80;;;14.10;;
77016;SDS011;65949;53.132;17.930;2023-12-04T12:56:11;85.60;;;33.10;;
77016;SDS011;65949;53.132;17.930;2023-12-04T12:58:38;40.20;;;15.50;;
77016;SDS011;65949;53.132;17.930;2023-12-04T13:01:04;42.30;;;16.00;;
77016;SDS011;65949;53.132;17.930;2023-12-04T13:03:31;37.50;;;16.30;;
77016;SDS011;65949;53.132;17.930;2023-12-04T13:05:58;48.80;;;17.20;;
77016;SDS011;65949;53.132;17.930;2023-12-04T13:08:25;43.70;;;17.00;;
77016;SDS011;65949;53.132;17.930;2023-12-04T13:10:52;33.50;;;12.80;;
77016;SDS011;65949;53.132;17.930;2023-12-04T13:13:19;44.00;;;16.90;;
77016;SDS011;65949;53.132;17.930;2023-12-04T13:15:46;40.10;;;15.80;;
77016;SDS011;65949;53.132;17.930;2023-12-04T13:18:12;42.10;;;16.70;;
77016;SDS011;65949;53.132;17.930;2023-12-04T13:20:39;43.90;;;16.90;;
77016;SDS011;65949;53.132;17.930;2023-12-04T13:23:06;44.10;;;15.70;;
77016;SDS011;65949;53.132;17.930;2023-12-04T13:25:32;43.90;;;16.70;;
77016;SDS011;65949;53.132;17.930;2023-12-04T13:28:00;40.20;;;15.10;;
77016;SDS011;65949;53.132;17.930;2023-12-04T13:30:26;78.90;;;33.90;;
77016;SDS011;65949;53.132;17.930;2023-12-04T13:32:53;89.80;;;40.00;;
77016;SDS011;65949;53.132;17.930;2023-12-04T13:35:19;43.10;;;17.00;;
77016;SDS011;65949;53.132;17.930;2023-12-04T13:37:46;40.20;;;16.30;;
77016;SDS011;65949;53.132;17.930;2023-12-04T13:40:20;41.30;;;16.50;;
77016;SDS011;65949;53.132;17.930;2023-12-04T13:42:47;42.50;;;17.40;;
77016;SDS011;65949;53.132;17.930;2023-12-04T13:45:33;44.50;;;16.60;;
77016;SDS011;65949;53.132;17.930;2023-12-04T13:48:01;43.20;;;14.80;;
77016;SDS011;65949;53.132;17.930;2023-12-04T13:50:28;46.20;;;17.50;;
77016;SDS011;65949;53.132;17.930;2023-12-04T13:52:55;42.20;;;16.20;;
77016;SDS011;65949;53.132;17.930;2023-12-04T13:55:23;40.70;;;15.50;;
77016;SDS011;65949;53.132;17.930;2023-12-04T13:58:14;44.00;;;15.80;;
77016;SDS011;65949;53.132;17.930;2023-12-04T14:00:59;41.10;;;15.20;;
77016;SDS011;65949;53.132;17.930;2023-12-04T14:03:29;40.30;;;15.30;;
77016;SDS011;65949;53.132;17.930;2023-12-04T14:05:56;47.50;;;17.80;;
77016;SDS011;65949;53.132;17.930;2023-12-04T14:08:23;42.00;;;16.70;;
77016;SDS011;65949;53.132;17.930;2023-12-04T14:10:51;63.60;;;23.60;;
77016;SDS011;65949;53.132;17.930;2023-12-04T14:13:18;64.10;;;24.00;;
77016;SDS011;65949;53.132;17.930;2023-12-04T14:15:46;51.70;;;22.20;;
77016;SDS011;65949;53.132;17.930;2023-12-04T14:18:12;64.90;;;25.40;;
77016;SDS011;65949;53.132;17.930;2023-12-04T14:20:39;62.30;;;22.30;;